Weather reports worldwide

Advertisment
Monte Terminillo, Italy (16219): temperature & dewpoint: 23.09.2020 03:00:00 - 29.09.2020 03:00:00 (CEST)Monte Terminillo, Italy (16219): wind speed & gusts: 23.09.2020 03:00:00 - 29.09.2020 03:00:00 (CEST)Monte Terminillo, Italy (16219): wind direction: 23.09.2020 03:00:00 - 29.09.2020 03:00:00 (CEST)Monte Terminillo, Italy (16219): sunshine duration: 23.09.2020 03:00:00 - 29.09.2020 03:00:00 (CEST)
Date & Time tt [°C] td [°C] ff [km/h] ff [kn] fx [km/h] fx [kn] dd sd [min]
29.09.2020 03:00:00 - - - - - - - -
29.09.2020 02:00:00 1,9 0,8 26 14 - - NNW 0
29.09.2020 01:00:00 2,0 1,1 26 14 - - NNW 0
29.09.2020 00:00:00 2,5 1,9 22 12 - - NNW 0
28.09.2020 23:00:00 2,8 2,4 21 11 - - NNW 0
28.09.2020 22:00:00 2,9 2,5 13 7 - - NW 0
28.09.2020 21:00:00 2,8 2,6 9 5 - - WNW 0
28.09.2020 20:00:00 2,8 2,7 4 2 - - N 0
28.09.2020 19:00:00 3,0 2,8 4 2 - - N 0
28.09.2020 18:00:00 2,8 2,5 4 2 - - N 0
28.09.2020 17:00:00 2,6 2,4 4 2 - - N 0
28.09.2020 16:00:00 2,4 2,3 4 2 - - N 0
28.09.2020 15:00:00 2,1 2,1 4 2 - - N 0
28.09.2020 14:00:00 1,8 1,6 4 2 - - N 0
28.09.2020 13:00:00 1,3 1,2 4 2 - - N 0
28.09.2020 12:00:00 1,3 1,1 4 2 - - N 0
28.09.2020 11:00:00 1,5 1,4 4 2 - - N 0
28.09.2020 10:00:00 1,2 1,1 4 2 - - N 7
28.09.2020 09:00:00 1,1 1,0 4 2 - - N 4
28.09.2020 08:00:00 1,1 0,7 4 2 - - N 0
28.09.2020 07:00:00 1,1 0,7 22 12 - - WNW 0
28.09.2020 06:00:00 1,3 1,0 22 12 - - WNW 0
28.09.2020 05:00:00 1,4 1,1 22 12 - - NW 0
28.09.2020 04:00:00 1,5 1,2 31 17 - - WNW 0
28.09.2020 03:00:00 2,2 2,0 16 9 - - W 0
28.09.2020 02:00:00 2,8 2,7 22 12 - - W 0
28.09.2020 01:00:00 2,7 2,6 26 14 - - WNW 0
28.09.2020 00:00:00 2,9 2,8 21 11 40 21 NW 0
27.09.2020 23:00:00 3,6 3,5 4 2 - - N 0
27.09.2020 22:00:00 3,7 3,7 4 2 - - N 0
27.09.2020 21:00:00 3,8 3,8 4 2 - - N 0
27.09.2020 20:00:00 3,3 3,3 5 3 - - E 0
27.09.2020 19:00:00 3,4 3,4 4 2 - - N 0
27.09.2020 18:00:00 2,7 2,7 16 9 - - SE 0
27.09.2020 17:00:00 2,1 2,1 29 16 - - S 0
27.09.2020 16:00:00 2,0 2,0 34 18 55 30 SSE 0
27.09.2020 15:00:00 1,3 1,3 50 27 - - SE 0
27.09.2020 14:00:00 0,7 0,7 29 16 - - SSE 0
27.09.2020 13:00:00 0,2 0,1 37 20 - - SSE 0
27.09.2020 12:00:00 0,4 0,0 21 11 - - SSE 0
27.09.2020 11:00:00 0,7 0,0 24 13 - - SSE 0
27.09.2020 10:00:00 0,7 0,2 21 11 - - SE 0
27.09.2020 09:00:00 0,7 0,1 15 8 - - SSW 0
27.09.2020 08:00:00 1,0 0,5 4 2 - - N 0
27.09.2020 07:00:00 0,9 0,4 4 2 - - N 0
27.09.2020 06:00:00 0,8 0,1 4 2 - - N 0
27.09.2020 05:00:00 0,9 0,0 4 2 - - N 0
27.09.2020 04:00:00 1,3 0,7 4 2 - - N 0
27.09.2020 03:00:00 1,1 0,4 5 3 - - NW 0
27.09.2020 02:00:00 1,2 -0,1 4 2 - - N 0
27.09.2020 01:00:00 1,2 -0,1 13 7 - - SSW 0
27.09.2020 00:00:00 1,4 -0,4 15 8 - - SSW 0
26.09.2020 23:00:00 1,7 -0,2 21 11 - - SSW 0
26.09.2020 22:00:00 2,0 0,3 11 6 - - SSW 0
26.09.2020 21:00:00 2,3 0,8 9 5 - - SW 0
26.09.2020 20:00:00 2,4 1,3 4 2 - - N 0
26.09.2020 19:00:00 3,4 2,4 9 5 - - W 15
26.09.2020 18:00:00 4,4 2,0 4 2 - - N 0
26.09.2020 17:00:00 4,7 2,2 4 2 - - N 0
26.09.2020 16:00:00 4,4 3,1 24 13 - - WNW 27
26.09.2020 15:00:00 3,3 2,5 29 16 - - W 24
26.09.2020 14:00:00 2,4 2,1 21 11 - - NNW 35
26.09.2020 13:00:00 2,2 2,1 21 11 - - WNW 52
26.09.2020 12:00:00 2,1 2,1 28 15 - - NW -
26.09.2020 11:00:00 - - 0 0 - - N -
26.09.2020 10:00:00 - - - - - - - -
26.09.2020 09:00:00 - - - - - - - -
26.09.2020 08:00:00 - - - - - - - -
26.09.2020 07:00:00 - - - - - - - -
26.09.2020 06:00:00 - - - - - - - -
26.09.2020 05:00:00 - - - - - - - -
26.09.2020 04:00:00 - - - - - - - -
26.09.2020 03:00:00 - - - - - - - -
26.09.2020 02:00:00 - - - - - - - -
26.09.2020 01:00:00 - - - - - - - -
26.09.2020 00:00:00 - - - - - - - -
25.09.2020 23:00:00 - - - - - - - -
25.09.2020 22:00:00 - - - - - - - -
25.09.2020 21:00:00 - - - - - - - -
25.09.2020 20:00:00 - - - - - - - -
25.09.2020 19:00:00 - - - - - - - -
25.09.2020 18:00:00 - - - - - - - -
25.09.2020 17:00:00 9,2 9,0 4 2 - - N 0
25.09.2020 16:00:00 9,2 9,0 4 2 61 33 N 0
25.09.2020 15:00:00 10,1 10,0 4 2 37 20 N 0
25.09.2020 14:00:00 10,0 9,9 4 2 - - N 0
25.09.2020 13:00:00 9,6 9,4 4 2 50 27 N 0
25.09.2020 12:00:00 10,0 9,9 4 2 61 33 N 0
25.09.2020 11:00:00 10,5 10,5 29 16 - - WNW 0
25.09.2020 10:00:00 10,4 10,3 4 2 55 30 N 0
25.09.2020 09:00:00 10,7 10,7 4 2 61 33 N 0
25.09.2020 08:00:00 10,4 10,3 4 2 - - N 0
25.09.2020 07:00:00 10,9 10,9 4 2 54 29 N 0
25.09.2020 06:00:00 10,5 10,5 4 2 55 30 N 0
25.09.2020 05:00:00 10,2 10,2 4 2 - - N 0
25.09.2020 04:00:00 9,9 9,8 4 2 33 18 N 0
25.09.2020 03:00:00 10,1 10,0 4 2 - - N 0
25.09.2020 02:00:00 10,1 10,0 4 2 - - N 0
25.09.2020 01:00:00 10,0 9,9 4 2 - - N 0
25.09.2020 00:00:00 10,1 9,9 4 2 - - N 0
24.09.2020 23:00:00 10,2 10,0 4 2 - - N 0
24.09.2020 22:00:00 10,2 10,0 4 2 - - N 0
24.09.2020 21:00:00 10,0 9,6 4 2 - - N 0
24.09.2020 20:00:00 10,3 10,1 4 2 - - N 0
24.09.2020 19:00:00 10,0 8,9 4 2 29 15 N 0
24.09.2020 18:00:00 10,8 10,3 4 2 - - N 0
24.09.2020 17:00:00 11,0 9,9 4 2 - - N 0
24.09.2020 16:00:00 10,7 9,8 4 2 - - N 6
24.09.2020 15:00:00 10,4 9,4 4 2 - - N 9
24.09.2020 14:00:00 10,4 9,5 4 2 - - N 0
24.09.2020 13:00:00 10,1 9,0 4 2 - - N 4
24.09.2020 12:00:00 9,6 8,5 4 2 - - N 13
24.09.2020 11:00:00 9,4 8,4 4 2 - - N 2
24.09.2020 10:00:00 8,6 7,6 4 2 - - N 32
24.09.2020 09:00:00 8,1 7,1 18 10 - - WNW 60
24.09.2020 08:00:00 8,1 7,3 18 10 - - WNW 26
24.09.2020 07:00:00 7,8 6,7 21 11 - - WNW 0
24.09.2020 06:00:00 7,9 6,8 18 10 - - W 0
24.09.2020 05:00:00 8,1 7,2 24 13 - - WNW 0
24.09.2020 04:00:00 8,4 7,5 26 14 - - WNW 0
24.09.2020 03:00:00 8,5 7,5 18 10 - - NW 0
24.09.2020 02:00:00 8,7 8,2 18 10 - - WNW 0
24.09.2020 01:00:00 8,8 8,2 24 13 - - NW 0
24.09.2020 00:00:00 8,8 8,4 22 12 - - NW 0
23.09.2020 23:00:00 8,9 8,4 4 2 - - N 0
23.09.2020 22:00:00 9,2 8,9 4 2 - - N 0
23.09.2020 21:00:00 9,1 8,8 16 9 - - W 0
23.09.2020 20:00:00 9,0 8,6 4 2 - - N 0
23.09.2020 19:00:00 9,2 8,8 4 2 43 23 N 2
23.09.2020 18:00:00 9,5 9,0 4 2 35 19 N 0
23.09.2020 17:00:00 9,5 9,0 4 2 - - N 0
23.09.2020 16:00:00 9,5 9,0 4 2 35 19 N 1
23.09.2020 15:00:00 9,5 9,0 4 2 - - N 1
23.09.2020 14:00:00 9,5 9,0 4 2 - - N 0
23.09.2020 13:00:00 9,4 9,1 4 2 - - N 1
23.09.2020 12:00:00 9,0 8,6 4 2 26 14 N 0
23.09.2020 11:00:00 8,9 8,5 4 2 - - N 0
23.09.2020 10:00:00 8,8 8,5 4 2 - - N 0
23.09.2020 09:00:00 8,9 8,5 4 2 - - N 0
23.09.2020 08:00:00 8,9 8,6 4 2 - - N 0
23.09.2020 07:00:00 8,6 8,3 24 13 - - W 0
23.09.2020 06:00:00 8,4 7,8 22 12 - - W 0
23.09.2020 05:00:00 8,5 7,1 4 2 - - N 0
23.09.2020 04:00:00 8,9 7,9 22 12 - - W 0
23.09.2020 03:00:00 9,4 8,8 26 14 - - WNW 0

tt = temperature
td = dewpoint
ff = wind speed
fx = gusts
dd = wind direction
sd = sunshine duration

Next stations